createdAt,value
2023-05-21T00:02:25.496Z,32.29
2023-05-21T00:04:56.042Z,33.28
2023-05-21T00:07:26.990Z,33.01
2023-05-21T00:09:57.392Z,34.98
2023-05-21T00:12:28.079Z,31.69
2023-05-21T00:14:58.517Z,32.92
2023-05-21T00:17:30.008Z,32.62
2023-05-21T00:20:01.564Z,32.44
2023-05-21T00:22:32.322Z,34.21
2023-05-21T00:25:02.731Z,32.95
2023-05-21T00:27:33.158Z,33.05
2023-05-21T00:30:03.577Z,31.60
2023-05-21T00:32:34.061Z,32.24
2023-05-21T00:35:04.661Z,32.10
2023-05-21T00:37:35.912Z,31.97
2023-05-21T00:40:24.815Z,32.01
2023-05-21T00:42:58.728Z,33.83
2023-05-21T00:45:49.064Z,34.13
2023-05-21T00:48:19.520Z,35.54
2023-05-21T00:50:51.042Z,35.78
2023-05-21T00:53:22.292Z,31.68
2023-05-21T00:55:53.614Z,33.06
2023-05-21T00:58:24.499Z,32.84
2023-05-21T01:00:58.472Z,31.52
2023-05-21T01:03:28.985Z,31.47
2023-05-21T01:06:01.470Z,34.36
2023-05-21T01:08:31.474Z,32.81
2023-05-21T01:11:03.353Z,34.07
2023-05-21T01:13:35.073Z,32.56
2023-05-21T01:16:08.132Z,31.97
2023-05-21T01:18:45.024Z,34.33
2023-05-21T01:21:18.793Z,35.85
2023-05-21T01:23:49.433Z,37.18
2023-05-21T01:26:20.053Z,35.74
2023-05-21T01:28:50.557Z,32.51
2023-05-21T01:31:44.479Z,34.85
2023-05-21T01:34:17.099Z,33.12
2023-05-21T01:37:17.505Z,33.66
2023-05-21T01:40:02.080Z,33.65
2023-05-21T01:42:35.973Z,32.11
2023-05-21T01:45:08.609Z,33.36
2023-05-21T01:47:41.447Z,37.45
2023-05-21T01:50:12.958Z,34.69
2023-05-21T01:53:00.146Z,37.96
2023-05-21T01:55:32.238Z,36.53
2023-05-21T01:58:02.988Z,37.72
2023-05-21T02:00:34.171Z,38.57
2023-05-21T02:03:04.671Z,34.93
2023-05-21T02:05:35.292Z,37.73
2023-05-21T02:08:06.995Z,36.28
2023-05-21T02:10:38.421Z,37.09
2023-05-21T02:13:09.131Z,38.13
2023-05-21T02:15:41.810Z,36.05
2023-05-21T02:18:12.896Z,36.44
2023-05-21T02:20:45.283Z,35.62
2023-05-21T02:23:15.824Z,36.78
2023-05-21T02:25:46.200Z,36.54
2023-05-21T02:28:17.421Z,37.76
2023-05-21T02:30:47.949Z,35.54
2023-05-21T02:33:18.931Z,33.08
2023-05-21T02:35:50.299Z,34.25
2023-05-21T02:38:24.756Z,33.28
2023-05-21T02:40:55.474Z,32.07
2023-05-21T02:43:26.662Z,34.70
2023-05-21T02:45:57.322Z,34.42
2023-05-21T02:48:29.211Z,32.79
2023-05-21T02:51:00.202Z,35.26
2023-05-21T02:53:30.742Z,34.43
2023-05-21T02:56:01.181Z,33.07
2023-05-21T02:58:31.609Z,34.19
2023-05-21T03:01:02.104Z,35.08
2023-05-21T03:03:33.943Z,35.90
2023-05-21T03:06:05.629Z,35.98
2023-05-21T03:08:36.019Z,36.71
2023-05-21T03:11:06.622Z,32.26
2023-05-21T03:13:37.120Z,34.29
2023-05-21T03:16:07.952Z,34.02
2023-05-21T03:18:38.420Z,33.83
2023-05-21T03:21:08.842Z,33.39
2023-05-21T03:23:39.550Z,33.02
2023-05-21T03:26:10.653Z,32.66
2023-05-21T03:28:41.096Z,34.65
2023-05-21T03:31:12.029Z,33.39
2023-05-21T03:33:54.226Z,32.44
2023-05-21T03:36:27.706Z,33.15
2023-05-21T03:38:59.620Z,32.66
2023-05-21T03:41:29.928Z,33.15
2023-05-21T03:44:08.345Z,32.75
2023-05-21T03:46:59.056Z,32.36
2023-05-21T03:49:32.412Z,33.29
2023-05-21T03:52:02.979Z,31.69
2023-05-21T03:54:33.517Z,31.90
2023-05-21T03:57:08.309Z,30.81
2023-05-21T03:59:38.889Z,30.54
2023-05-21T04:02:09.582Z,30.73
2023-05-21T04:04:40.262Z,30.70
2023-05-21T04:07:15.915Z,29.94
2023-05-21T04:09:46.368Z,31.07
2023-05-21T04:12:17.002Z,30.96
2023-05-21T04:14:48.120Z,29.39
2023-05-21T04:17:18.653Z,29.75
2023-05-21T04:19:49.284Z,30.46
2023-05-21T04:22:19.760Z,29.78
2023-05-21T04:24:52.016Z,29.46
2023-05-21T04:27:27.914Z,30.17
2023-05-21T04:29:59.560Z,30.17
2023-05-21T04:32:32.455Z,29.79
2023-05-21T04:35:03.603Z,29.88
2023-05-21T04:37:36.572Z,29.74
2023-05-21T04:40:08.350Z,29.95
2023-05-21T04:42:38.681Z,29.86
2023-05-21T04:45:10.322Z,29.68
2023-05-21T04:47:42.911Z,29.65
2023-05-21T04:50:13.702Z,29.66
2023-05-21T04:52:44.689Z,29.78
2023-05-21T04:55:15.216Z,29.96
2023-05-21T04:57:45.605Z,29.14
2023-05-21T05:00:16.329Z,29.17
2023-05-21T05:02:47.866Z,30.41
2023-05-21T05:05:18.646Z,29.83
2023-05-21T05:07:49.685Z,29.39
2023-05-21T05:10:20.522Z,28.97
2023-05-21T05:12:51.762Z,29.21
2023-05-21T05:15:22.386Z,29.58
2023-05-21T05:17:53.144Z,30.13
2023-05-21T05:20:23.856Z,29.35
2023-05-21T05:22:54.491Z,29.19
2023-05-21T05:25:25.271Z,29.14
2023-05-21T05:27:55.791Z,29.32
2023-05-21T05:30:26.245Z,28.78
2023-05-21T05:33:00.325Z,28.83
2023-05-21T05:35:30.793Z,29.77
2023-05-21T05:38:01.242Z,28.37
2023-05-21T05:40:31.710Z,29.31
2023-05-21T05:43:02.140Z,29.69
2023-05-21T05:45:32.674Z,29.40
2023-05-21T05:48:04.327Z,29.09
2023-05-21T05:50:35.027Z,29.00
2023-05-21T05:53:05.556Z,29.45
2023-05-21T05:55:36.306Z,28.91
2023-05-21T05:58:07.124Z,28.14
2023-05-21T06:00:50.063Z,29.42
2023-05-21T06:03:20.733Z,28.58
2023-05-21T06:05:55.455Z,28.70
2023-05-21T06:08:26.938Z,28.66
2023-05-21T06:10:57.772Z,28.64
2023-05-21T06:13:28.227Z,28.97
2023-05-21T06:15:59.296Z,27.17
2023-05-21T06:18:29.837Z,28.20
2023-05-21T06:21:00.348Z,29.07
2023-05-21T06:23:33.663Z,28.65
2023-05-21T06:26:04.457Z,28.17
2023-05-21T06:28:35.264Z,28.68
2023-05-21T06:31:06.113Z,28.55
2023-05-21T06:33:54.879Z,28.49
2023-05-21T06:36:27.699Z,28.84
2023-05-21T06:39:01.322Z,28.56
2023-05-21T06:41:31.858Z,28.43
2023-05-21T06:44:06.933Z,28.48
2023-05-21T06:47:05.151Z,28.42
2023-05-21T06:49:35.763Z,28.53
2023-05-21T06:52:06.524Z,28.05
2023-05-21T06:54:37.104Z,28.48
2023-05-21T06:57:08.182Z,28.68
2023-05-21T06:59:38.857Z,27.46
2023-05-21T07:02:09.383Z,27.76
2023-05-21T07:04:39.950Z,27.05
2023-05-21T07:07:10.403Z,28.03
2023-05-21T07:09:40.745Z,28.53
2023-05-21T07:12:11.850Z,27.60
2023-05-21T07:14:42.405Z,28.19
2023-05-21T07:17:12.935Z,28.24
2023-05-21T07:19:43.435Z,28.90
2023-05-21T07:22:14.191Z,27.98
2023-05-21T07:24:45.049Z,28.84
2023-05-21T07:27:25.206Z,28.53
2023-05-21T07:29:57.368Z,28.53
2023-05-21T07:32:46.229Z,27.55
2023-05-21T07:35:17.100Z,28.06
2023-05-21T07:37:48.303Z,28.01
2023-05-21T07:40:18.946Z,28.96
2023-05-21T07:42:49.616Z,28.24
2023-05-21T07:45:22.367Z,27.11
2023-05-21T07:47:53.088Z,27.67
2023-05-21T07:50:23.937Z,28.51
2023-05-21T07:52:54.601Z,29.41
2023-05-21T07:55:25.290Z,28.89
2023-05-21T07:57:55.970Z,29.41
2023-05-21T08:00:44.489Z,29.96
2023-05-21T08:03:20.789Z,30.55
2023-05-21T08:05:52.689Z,31.16
2023-05-21T08:08:26.231Z,30.53
2023-05-21T08:10:59.222Z,30.93
2023-05-21T08:13:30.852Z,31.38
2023-05-21T08:16:01.511Z,31.96
2023-05-21T08:18:32.623Z,31.39
2023-05-21T08:21:04.024Z,29.27
2023-05-21T08:23:34.882Z,30.93
2023-05-21T08:26:05.414Z,31.94
2023-05-21T08:28:37.157Z,30.25
2023-05-21T08:31:07.783Z,29.69
2023-05-21T08:33:40.434Z,30.53
2023-05-21T08:36:10.995Z,31.03
2023-05-21T08:38:48.888Z,29.68
2023-05-21T08:41:27.990Z,28.88
2023-05-21T08:43:59.509Z,27.70
2023-05-21T08:46:35.988Z,27.81
2023-05-21T08:49:06.771Z,28.41
2023-05-21T08:51:37.652Z,27.94
2023-05-21T08:54:08.606Z,28.78
2023-05-21T08:56:42.325Z,28.74
2023-05-21T08:59:13.368Z,28.52
2023-05-21T09:01:45.207Z,28.66
2023-05-21T09:04:27.743Z,27.79
2023-05-21T09:06:59.445Z,28.77
2023-05-21T09:09:59.400Z,28.39
2023-05-21T09:12:30.823Z,28.77
2023-05-21T09:15:03.904Z,29.58
2023-05-21T09:17:38.450Z,29.10
2023-05-21T09:20:31.619Z,29.09
2023-05-21T09:23:13.867Z,28.12
2023-05-21T09:25:47.092Z,29.10
2023-05-21T09:28:24.792Z,28.58
2023-05-21T09:30:55.891Z,28.36
2023-05-21T09:33:33.734Z,28.44
2023-05-21T09:36:04.764Z,30.31
2023-05-21T09:38:36.738Z,29.19
2023-05-21T09:41:08.158Z,29.96
2023-05-21T09:43:39.309Z,30.04
2023-05-21T09:46:10.057Z,28.81
2023-05-21T09:48:48.184Z,29.44
2023-05-21T09:51:22.849Z,29.64
2023-05-21T09:53:56.872Z,29.43
2023-05-21T09:56:30.454Z,28.82
2023-05-21T09:59:19.116Z,28.89
2023-05-21T10:01:52.500Z,29.74
2023-05-21T10:04:25.260Z,29.55
2023-05-21T10:06:55.982Z,30.44
2023-05-21T10:09:26.710Z,29.22
2023-05-21T10:11:58.787Z,28.83
2023-05-21T10:14:33.452Z,30.22
2023-05-21T10:17:04.332Z,30.05
2023-05-21T10:19:37.952Z,29.49
2023-05-21T10:22:09.641Z,29.07
2023-05-21T10:24:42.463Z,28.74
2023-05-21T10:27:33.162Z,28.70
2023-05-21T10:30:05.093Z,29.08
2023-05-21T10:32:35.930Z,29.51
2023-05-21T10:35:07.180Z,29.64
2023-05-21T10:37:38.170Z,28.48
2023-05-21T10:40:09.400Z,28.58
2023-05-21T10:43:21.143Z,28.56
2023-05-21T10:46:01.867Z,28.56
2023-05-21T10:49:00.518Z,28.31
2023-05-21T10:51:36.665Z,28.82
2023-05-21T10:54:57.566Z,28.58
2023-05-21T10:58:08.919Z,29.00
2023-05-21T11:00:39.715Z,28.88
2023-05-21T11:03:12.924Z,29.20
2023-05-21T11:05:54.164Z,28.33
2023-05-21T11:08:29.601Z,29.22
2023-05-21T11:11:00.837Z,28.98
2023-05-21T11:13:50.272Z,28.78
2023-05-21T11:16:23.629Z,28.47
2023-05-21T11:18:56.469Z,28.53
2023-05-21T11:21:32.059Z,28.59
2023-05-21T11:24:05.046Z,28.51
2023-05-21T11:26:51.631Z,29.17
2023-05-21T11:29:22.617Z,29.02
2023-05-21T11:32:07.253Z,28.65
2023-05-21T11:34:44.123Z,28.71
2023-05-21T11:37:20.739Z,28.40
2023-05-21T11:39:53.325Z,28.96
2023-05-21T11:42:43.720Z,29.48
2023-05-21T11:45:19.168Z,29.14
2023-05-21T11:47:51.495Z,29.00
2023-05-21T11:50:22.398Z,28.76
2023-05-21T11:52:53.525Z,28.78
2023-05-21T11:55:27.545Z,28.58
2023-05-21T11:58:17.975Z,28.71
2023-05-21T12:00:48.451Z,28.91
2023-05-21T12:03:19.606Z,29.29
2023-05-21T12:05:50.997Z,28.88
2023-05-21T12:08:28.754Z,29.40
2023-05-21T12:11:03.376Z,28.67
2023-05-21T12:13:34.194Z,28.95
2023-05-21T12:16:06.793Z,28.50
2023-05-21T12:18:39.315Z,28.88
2023-05-21T12:21:11.776Z,28.82
2023-05-21T12:23:43.463Z,28.98
2023-05-21T12:26:34.641Z,28.97
2023-05-21T12:29:07.803Z,27.75
2023-05-21T12:31:52.548Z,28.47
2023-05-21T12:34:48.216Z,28.31
2023-05-21T12:37:24.425Z,28.48
2023-05-21T12:39:57.254Z,28.95
2023-05-21T12:42:29.357Z,28.78
2023-05-21T12:45:00.480Z,28.79
2023-05-21T12:47:32.551Z,28.58
2023-05-21T12:50:04.918Z,28.83
2023-05-21T12:52:35.602Z,27.98
2023-05-21T12:55:09.370Z,28.35
2023-05-21T12:57:40.922Z,28.75
2023-05-21T13:00:12.707Z,29.09
2023-05-21T13:02:47.827Z,28.74
2023-05-21T13:05:21.543Z,28.93
2023-05-21T13:07:53.189Z,28.47
2023-05-21T13:10:23.683Z,28.51
2023-05-21T13:13:12.250Z,28.54
2023-05-21T13:15:42.999Z,28.40
2023-05-21T13:18:31.519Z,27.91
2023-05-21T13:21:02.255Z,28.05
2023-05-21T13:23:33.103Z,28.23
2023-05-21T13:26:03.599Z,28.16
2023-05-21T13:28:34.082Z,28.08
2023-05-21T13:31:04.565Z,28.37
2023-05-21T13:33:35.269Z,27.74
2023-05-21T13:36:06.218Z,28.66
2023-05-21T13:38:36.675Z,29.19
2023-05-21T13:41:07.100Z,28.56
2023-05-21T13:43:37.680Z,28.20
2023-05-21T13:46:08.531Z,28.51
2023-05-21T13:48:38.983Z,28.84
2023-05-21T13:51:09.363Z,28.19
2023-05-21T13:53:40.632Z,28.83
2023-05-21T13:56:11.064Z,28.28
2023-05-21T13:58:42.175Z,28.12
2023-05-21T14:01:13.513Z,27.97
2023-05-21T14:03:44.512Z,27.39
2023-05-21T14:06:15.180Z,28.20
2023-05-21T14:08:45.683Z,28.21
2023-05-21T14:11:16.035Z,27.89
2023-05-21T14:13:46.570Z,28.03
2023-05-21T14:16:17.117Z,28.74
2023-05-21T14:18:47.757Z,28.43
2023-05-21T14:21:18.264Z,28.10
2023-05-21T14:23:49.682Z,28.77
2023-05-21T14:26:42.081Z,28.41
2023-05-21T14:29:12.674Z,28.36
2023-05-21T14:31:43.216Z,28.41
2023-05-21T14:34:13.709Z,28.44
2023-05-21T14:36:44.156Z,28.75
2023-05-21T14:39:14.638Z,28.77
2023-05-21T14:41:45.162Z,28.50
2023-05-21T14:44:15.634Z,28.72
2023-05-21T14:46:46.070Z,28.64
2023-05-21T14:49:16.762Z,28.08
2023-05-21T14:51:49.069Z,27.97
2023-05-21T14:54:19.607Z,28.22
2023-05-21T14:56:50.237Z,28.59
2023-05-21T14:59:20.763Z,28.40
2023-05-21T15:01:51.396Z,27.17
2023-05-21T15:04:21.927Z,27.89
2023-05-21T15:06:52.824Z,28.46
2023-05-21T15:09:23.517Z,28.12
2023-05-21T15:11:55.095Z,28.61
2023-05-21T15:14:25.829Z,28.15
2023-05-21T15:16:56.350Z,28.11
2023-05-21T15:19:27.512Z,28.05
2023-05-21T15:21:58.143Z,28.41
2023-05-21T15:24:28.802Z,27.57
2023-05-21T15:26:59.274Z,27.82
2023-05-21T15:29:29.886Z,28.45
2023-05-21T15:32:01.415Z,28.46
2023-05-21T15:34:31.889Z,28.27
2023-05-21T15:37:02.731Z,28.35
2023-05-21T15:39:33.335Z,28.58
2023-05-21T15:42:03.773Z,28.24
2023-05-21T15:44:34.259Z,27.97
2023-05-21T15:47:04.792Z,28.70
2023-05-21T15:49:35.855Z,28.76
2023-05-21T15:52:24.701Z,27.95
2023-05-21T15:54:55.381Z,28.16
2023-05-21T15:57:25.869Z,28.01
2023-05-21T15:59:57.113Z,28.32
2023-05-21T16:02:27.559Z,27.86
2023-05-21T16:04:58.058Z,28.46
2023-05-21T16:07:28.537Z,28.37
2023-05-21T16:09:59.079Z,28.68
2023-05-21T16:12:29.547Z,29.21
2023-05-21T16:14:59.965Z,27.79
2023-05-21T16:17:30.614Z,28.49
2023-05-21T16:20:01.375Z,28.49
2023-05-21T16:22:31.999Z,28.10
2023-05-21T16:25:02.474Z,28.03
2023-05-21T16:27:32.957Z,28.04
2023-05-21T16:30:03.556Z,28.02
2023-05-21T16:32:34.656Z,28.46
2023-05-21T16:35:05.328Z,27.92
2023-05-21T16:37:36.001Z,27.62
2023-05-21T16:40:06.737Z,27.93
2023-05-21T16:42:37.048Z,28.60
2023-05-21T16:45:08.138Z,27.98
2023-05-21T16:47:38.801Z,28.31
2023-05-21T16:50:09.964Z,28.28
2023-05-21T16:52:40.346Z,28.22
2023-05-21T16:55:11.418Z,28.06
2023-05-21T16:57:42.463Z,28.60
2023-05-21T17:00:13.530Z,27.96
2023-05-21T17:02:44.177Z,27.88
2023-05-21T17:05:14.652Z,27.91
2023-05-21T17:07:45.388Z,28.42
2023-05-21T17:10:15.848Z,28.53
2023-05-21T17:12:46.543Z,28.51
2023-05-21T17:15:17.226Z,28.15
2023-05-21T17:17:47.899Z,28.81
2023-05-21T17:20:18.451Z,28.59
2023-05-21T17:22:48.961Z,28.62
2023-05-21T17:25:19.295Z,28.25
2023-05-21T17:27:49.900Z,28.60
2023-05-21T17:30:20.455Z,28.04
2023-05-21T17:32:50.898Z,28.52
2023-05-21T17:35:21.488Z,28.06
2023-05-21T17:37:51.875Z,27.75
2023-05-21T17:40:25.328Z,28.73
2023-05-21T17:42:55.971Z,28.36
2023-05-21T17:45:26.396Z,28.09
2023-05-21T17:48:00.164Z,28.58
2023-05-21T17:50:31.157Z,28.37
2023-05-21T17:53:01.717Z,28.70
2023-05-21T17:55:32.173Z,28.51
2023-05-21T17:58:02.666Z,27.89
2023-05-21T18:00:33.836Z,28.34
2023-05-21T18:03:04.374Z,28.49
2023-05-21T18:05:53.074Z,27.87
2023-05-21T18:08:23.599Z,28.73
2023-05-21T18:10:54.085Z,28.51
2023-05-21T18:13:24.551Z,28.24
2023-05-21T18:15:54.918Z,29.19
2023-05-21T18:18:26.252Z,28.64
2023-05-21T18:20:56.626Z,28.90
2023-05-21T18:23:28.806Z,28.82
2023-05-21T18:25:59.623Z,27.67
2023-05-21T18:28:33.323Z,28.24
2023-05-21T18:31:05.759Z,28.64
2023-05-21T18:33:36.249Z,28.10
2023-05-21T18:36:07.031Z,28.93
2023-05-21T18:38:37.466Z,28.38
2023-05-21T18:41:09.254Z,28.63
2023-05-21T18:43:39.597Z,28.73
2023-05-21T18:46:10.319Z,28.51
2023-05-21T18:48:40.740Z,29.02
2023-05-21T18:51:11.359Z,28.60
2023-05-21T18:53:42.134Z,28.56
2023-05-21T18:56:12.660Z,28.71
2023-05-21T18:58:43.151Z,29.23
2023-05-21T19:01:13.587Z,29.11
2023-05-21T19:03:44.093Z,28.74
2023-05-21T19:06:14.457Z,28.39
2023-05-21T19:08:47.665Z,29.02
2023-05-21T19:11:19.070Z,28.89
2023-05-21T19:13:49.939Z,28.92
2023-05-21T19:16:20.403Z,29.38
2023-05-21T19:18:50.920Z,28.56
2023-05-21T19:21:21.746Z,28.90
2023-05-21T19:23:53.784Z,28.92
2023-05-21T19:26:24.918Z,29.22
2023-05-21T19:28:56.004Z,28.70
2023-05-21T19:31:27.015Z,28.80
2023-05-21T19:33:57.605Z,29.28
2023-05-21T19:36:30.802Z,28.65
2023-05-21T19:39:10.468Z,28.61
2023-05-21T19:41:40.954Z,29.14
2023-05-21T19:44:11.379Z,29.09
2023-05-21T19:46:42.164Z,29.61
2023-05-21T19:49:12.628Z,29.23
2023-05-21T19:51:43.139Z,29.23
2023-05-21T19:54:13.862Z,28.56
2023-05-21T19:56:44.282Z,28.79
2023-05-21T19:59:14.934Z,28.94
2023-05-21T20:01:45.731Z,29.47
2023-05-21T20:04:16.644Z,28.61
2023-05-21T20:06:47.404Z,28.63
2023-05-21T20:09:19.538Z,28.47
2023-05-21T20:11:50.154Z,28.52
2023-05-21T20:14:20.584Z,28.83
2023-05-21T20:16:51.083Z,28.59
2023-05-21T20:19:23.836Z,28.94
2023-05-21T20:21:54.656Z,29.62
2023-05-21T20:24:25.429Z,29.58
2023-05-21T20:26:56.507Z,28.97
2023-05-21T20:29:27.166Z,28.97
2023-05-21T20:31:57.794Z,28.30
2023-05-21T20:34:31.269Z,28.61
2023-05-21T20:37:01.787Z,29.37
2023-05-21T20:39:50.277Z,28.39
2023-05-21T20:42:21.426Z,27.74
2023-05-21T20:44:52.000Z,28.47
2023-05-21T20:47:22.702Z,28.69
2023-05-21T20:49:55.168Z,30.88
2023-05-21T20:52:26.150Z,31.03
2023-05-21T20:54:56.842Z,31.14
2023-05-21T20:57:30.315Z,29.51
2023-05-21T21:00:00.721Z,28.37
2023-05-21T21:02:31.063Z,28.49
2023-05-21T21:05:01.494Z,27.27
2023-05-21T21:07:34.970Z,27.81
2023-05-21T21:10:06.708Z,27.81
2023-05-21T21:12:37.145Z,27.79
2023-05-21T21:15:08.117Z,28.13
2023-05-21T21:17:38.801Z,27.72
2023-05-21T21:20:10.831Z,27.68
2023-05-21T21:22:41.439Z,27.70
2023-05-21T21:25:12.258Z,28.14
2023-05-21T21:27:43.990Z,27.72
2023-05-21T21:30:14.742Z,28.59
2023-05-21T21:32:45.337Z,29.30
2023-05-21T21:35:15.957Z,28.19
2023-05-21T21:37:46.416Z,27.94
2023-05-21T21:40:16.891Z,28.29
2023-05-21T21:42:47.878Z,28.02
2023-05-21T21:45:18.417Z,27.76
2023-05-21T21:47:48.877Z,28.32
2023-05-21T21:50:19.449Z,28.11
2023-05-21T21:52:50.454Z,27.74
2023-05-21T21:55:20.941Z,28.47
2023-05-21T21:57:52.735Z,28.08
2023-05-21T22:00:27.897Z,28.69
2023-05-21T22:02:58.507Z,28.21
2023-05-21T22:05:32.857Z,27.92
2023-05-21T22:08:04.678Z,28.01
2023-05-21T22:10:39.668Z,27.53
2023-05-21T22:13:10.591Z,27.27
2023-05-21T22:15:41.289Z,27.48
2023-05-21T22:18:13.690Z,27.50
2023-05-21T22:20:45.307Z,28.07
2023-05-21T22:23:15.883Z,28.05
2023-05-21T22:25:46.835Z,27.49
2023-05-21T22:28:17.736Z,27.09
2023-05-21T22:30:48.287Z,26.96
2023-05-21T22:33:18.820Z,27.53
2023-05-21T22:35:49.322Z,28.33
2023-05-21T22:38:20.141Z,28.23
2023-05-21T22:40:50.727Z,27.89
2023-05-21T22:43:21.465Z,27.55
2023-05-21T22:45:52.097Z,26.37
2023-05-21T22:48:23.795Z,26.40
2023-05-21T22:50:54.881Z,26.77
2023-05-21T22:53:26.199Z,26.15
2023-05-21T22:55:56.534Z,26.70
2023-05-21T22:58:27.217Z,27.39
2023-05-21T23:00:57.620Z,25.77
2023-05-21T23:03:28.429Z,27.76
2023-05-21T23:05:58.879Z,27.15
2023-05-21T23:08:29.328Z,27.37
2023-05-21T23:11:00.030Z,29.35
2023-05-21T23:13:30.594Z,29.45
2023-05-21T23:16:01.127Z,31.13
2023-05-21T23:18:31.714Z,30.64
2023-05-21T23:21:03.308Z,31.04
2023-05-21T23:23:34.061Z,31.77
2023-05-21T23:26:04.488Z,32.84
2023-05-21T23:28:35.269Z,31.90
2023-05-21T23:31:06.421Z,33.60
2023-05-21T23:33:37.246Z,33.59
2023-05-21T23:36:07.985Z,34.07
2023-05-21T23:38:38.484Z,34.07
2023-05-21T23:41:09.525Z,32.57
2023-05-21T23:43:40.178Z,32.61
2023-05-21T23:46:29.233Z,33.97
2023-05-21T23:48:59.662Z,33.80
2023-05-21T23:51:30.480Z,33.82
2023-05-21T23:54:01.391Z,33.17
2023-05-21T23:56:32.708Z,34.30
2023-05-21T23:59:03.270Z,33.48
